sensor_id;sensor_type;location;lat;lon;timestamp;P1;durP1;ratioP1;P2;durP2;ratioP2
35188;SDS011;21762;54.480;18.556;2023-05-07T00:01:52;16.15;;;7.20;;
35188;SDS011;21762;54.480;18.556;2023-05-07T00:04:21;13.13;;;5.32;;
35188;SDS011;21762;54.480;18.556;2023-05-07T00:06:49;11.88;;;4.88;;
35188;SDS011;21762;54.480;18.556;2023-05-07T00:09:18;12.90;;;5.53;;
35188;SDS011;21762;54.480;18.556;2023-05-07T00:11:46;10.75;;;4.68;;
35188;SDS011;21762;54.480;18.556;2023-05-07T00:14:14;13.50;;;5.05;;
35188;SDS011;21762;54.480;18.556;2023-05-07T00:16:44;17.02;;;5.57;;
35188;SDS011;21762;54.480;18.556;2023-05-07T00:19:12;11.95;;;5.43;;
35188;SDS011;21762;54.480;18.556;2023-05-07T00:21:41;9.48;;;5.47;;
35188;SDS011;21762;54.480;18.556;2023-05-07T00:24:10;8.65;;;4.68;;
35188;SDS011;21762;54.480;18.556;2023-05-07T00:26:38;17.13;;;6.85;;
35188;SDS011;21762;54.480;18.556;2023-05-07T00:29:06;17.10;;;7.57;;
35188;SDS011;21762;54.480;18.556;2023-05-07T00:31:35;13.30;;;5.80;;
35188;SDS011;21762;54.480;18.556;2023-05-07T00:34:05;15.02;;;7.13;;
35188;SDS011;21762;54.480;18.556;2023-05-07T00:36:33;10.20;;;5.13;;
35188;SDS011;21762;54.480;18.556;2023-05-07T00:39:02;12.85;;;5.47;;
35188;SDS011;21762;54.480;18.556;2023-05-07T00:41:31;12.70;;;5.60;;
35188;SDS011;21762;54.480;18.556;2023-05-07T00:43:59;8.27;;;4.57;;
35188;SDS011;21762;54.480;18.556;2023-05-07T00:46:29;10.23;;;5.13;;
35188;SDS011;21762;54.480;18.556;2023-05-07T00:48:58;8.80;;;4.57;;
35188;SDS011;21762;54.480;18.556;2023-05-07T00:51:29;12.55;;;5.45;;
35188;SDS011;21762;54.480;18.556;2023-05-07T00:53:59;17.90;;;4.85;;
35188;SDS011;21762;54.480;18.556;2023-05-07T00:56:28;6.03;;;3.42;;
35188;SDS011;21762;54.480;18.556;2023-05-07T00:58:57;9.52;;;4.80;;
35188;SDS011;21762;54.480;18.556;2023-05-07T01:01:25;16.38;;;4.30;;
35188;SDS011;21762;54.480;18.556;2023-05-07T01:03:54;8.45;;;3.83;;
35188;SDS011;21762;54.480;18.556;2023-05-07T01:06:23;9.57;;;3.83;;
35188;SDS011;21762;54.480;18.556;2023-05-07T01:08:53;6.65;;;3.25;;
35188;SDS011;21762;54.480;18.556;2023-05-07T01:11:23;7.50;;;4.07;;
35188;SDS011;21762;54.480;18.556;2023-05-07T01:13:52;6.88;;;3.67;;
35188;SDS011;21762;54.480;18.556;2023-05-07T01:16:21;7.50;;;3.90;;
35188;SDS011;21762;54.480;18.556;2023-05-07T01:18:49;12.43;;;4.32;;
35188;SDS011;21762;54.480;18.556;2023-05-07T01:21:18;7.72;;;3.80;;
35188;SDS011;21762;54.480;18.556;2023-05-07T01:23:49;9.73;;;4.18;;
35188;SDS011;21762;54.480;18.556;2023-05-07T01:26:17;9.38;;;3.65;;
35188;SDS011;21762;54.480;18.556;2023-05-07T01:28:47;8.82;;;4.13;;
35188;SDS011;21762;54.480;18.556;2023-05-07T01:31:15;9.43;;;4.05;;
35188;SDS011;21762;54.480;18.556;2023-05-07T01:33:44;14.30;;;3.70;;
35188;SDS011;21762;54.480;18.556;2023-05-07T01:36:14;8.93;;;4.03;;
35188;SDS011;21762;54.480;18.556;2023-05-07T01:38:44;7.72;;;3.50;;
35188;SDS011;21762;54.480;18.556;2023-05-07T01:41:14;9.07;;;4.00;;
35188;SDS011;21762;54.480;18.556;2023-05-07T01:43:43;7.57;;;4.07;;
35188;SDS011;21762;54.480;18.556;2023-05-07T01:46:12;7.68;;;4.18;;
35188;SDS011;21762;54.480;18.556;2023-05-07T01:48:40;8.25;;;3.80;;
35188;SDS011;21762;54.480;18.556;2023-05-07T01:51:12;10.02;;;3.95;;
35188;SDS011;21762;54.480;18.556;2023-05-07T01:53:41;8.52;;;4.40;;
35188;SDS011;21762;54.480;18.556;2023-05-07T01:56:10;11.45;;;4.20;;
35188;SDS011;21762;54.480;18.556;2023-05-07T01:58:42;9.05;;;3.60;;
35188;SDS011;21762;54.480;18.556;2023-05-07T02:01:10;8.48;;;4.32;;
35188;SDS011;21762;54.480;18.556;2023-05-07T02:03:39;10.52;;;3.70;;
35188;SDS011;21762;54.480;18.556;2023-05-07T02:06:14;13.88;;;3.75;;
35188;SDS011;21762;54.480;18.556;2023-05-07T02:08:43;9.55;;;5.38;;
35188;SDS011;21762;54.480;18.556;2023-05-07T02:11:13;12.00;;;4.10;;
35188;SDS011;21762;54.480;18.556;2023-05-07T02:13:43;10.05;;;4.15;;
35188;SDS011;21762;54.480;18.556;2023-05-07T02:16:11;11.07;;;3.92;;
35188;SDS011;21762;54.480;18.556;2023-05-07T02:18:41;8.60;;;3.78;;
35188;SDS011;21762;54.480;18.556;2023-05-07T02:21:09;8.50;;;3.63;;
35188;SDS011;21762;54.480;18.556;2023-05-07T02:23:37;9.57;;;4.38;;
35188;SDS011;21762;54.480;18.556;2023-05-07T02:26:06;9.68;;;4.65;;
35188;SDS011;21762;54.480;18.556;2023-05-07T02:28:35;8.63;;;4.13;;
35188;SDS011;21762;54.480;18.556;2023-05-07T02:31:06;9.45;;;4.53;;
35188;SDS011;21762;54.480;18.556;2023-05-07T02:33:35;10.55;;;4.40;;
35188;SDS011;21762;54.480;18.556;2023-05-07T02:36:06;7.43;;;4.05;;
35188;SDS011;21762;54.480;18.556;2023-05-07T02:38:41;13.43;;;4.25;;
35188;SDS011;21762;54.480;18.556;2023-05-07T02:41:09;12.90;;;3.70;;
35188;SDS011;21762;54.480;18.556;2023-05-07T02:43:38;8.90;;;4.07;;
35188;SDS011;21762;54.480;18.556;2023-05-07T02:46:08;7.45;;;3.30;;
35188;SDS011;21762;54.480;18.556;2023-05-07T02:48:41;9.68;;;4.00;;
35188;SDS011;21762;54.480;18.556;2023-05-07T02:51:09;10.02;;;4.18;;
35188;SDS011;21762;54.480;18.556;2023-05-07T02:53:40;8.20;;;3.97;;
35188;SDS011;21762;54.480;18.556;2023-05-07T02:56:08;15.57;;;5.15;;
35188;SDS011;21762;54.480;18.556;2023-05-07T02:58:37;9.60;;;4.85;;
35188;SDS011;21762;54.480;18.556;2023-05-07T03:01:08;12.15;;;4.68;;
35188;SDS011;21762;54.480;18.556;2023-05-07T03:03:55;7.53;;;4.60;;
35188;SDS011;21762;54.480;18.556;2023-05-07T03:06:24;11.95;;;4.72;;
35188;SDS011;21762;54.480;18.556;2023-05-07T03:08:52;11.30;;;4.88;;
35188;SDS011;21762;54.480;18.556;2023-05-07T03:11:21;8.45;;;4.43;;
35188;SDS011;21762;54.480;18.556;2023-05-07T03:13:49;9.23;;;4.40;;
35188;SDS011;21762;54.480;18.556;2023-05-07T03:16:21;14.35;;;4.95;;
35188;SDS011;21762;54.480;18.556;2023-05-07T03:18:49;10.70;;;5.78;;
35188;SDS011;21762;54.480;18.556;2023-05-07T03:21:18;12.65;;;5.90;;
35188;SDS011;21762;54.480;18.556;2023-05-07T03:23:46;12.48;;;5.75;;
35188;SDS011;21762;54.480;18.556;2023-05-07T03:26:15;11.93;;;6.18;;
35188;SDS011;21762;54.480;18.556;2023-05-07T03:28:44;12.73;;;5.88;;
35188;SDS011;21762;54.480;18.556;2023-05-07T03:31:15;11.70;;;5.40;;
35188;SDS011;21762;54.480;18.556;2023-05-07T03:33:52;9.15;;;4.55;;
35188;SDS011;21762;54.480;18.556;2023-05-07T03:36:20;12.65;;;5.03;;
35188;SDS011;21762;54.480;18.556;2023-05-07T03:38:49;9.65;;;4.90;;
35188;SDS011;21762;54.480;18.556;2023-05-07T03:41:21;9.82;;;4.90;;
35188;SDS011;21762;54.480;18.556;2023-05-07T03:43:50;11.23;;;5.22;;
35188;SDS011;21762;54.480;18.556;2023-05-07T03:46:18;10.23;;;4.97;;
35188;SDS011;21762;54.480;18.556;2023-05-07T03:48:47;7.68;;;4.68;;
35188;SDS011;21762;54.480;18.556;2023-05-07T03:51:17;12.38;;;4.72;;
35188;SDS011;21762;54.480;18.556;2023-05-07T03:53:46;11.50;;;4.50;;
35188;SDS011;21762;54.480;18.556;2023-05-07T03:56:14;13.93;;;4.70;;
35188;SDS011;21762;54.480;18.556;2023-05-07T03:58:44;9.65;;;4.93;;
35188;SDS011;21762;54.480;18.556;2023-05-07T04:01:12;9.82;;;4.07;;
35188;SDS011;21762;54.480;18.556;2023-05-07T04:03:41;10.60;;;4.30;;
35188;SDS011;21762;54.480;18.556;2023-05-07T04:06:09;8.60;;;4.40;;
35188;SDS011;21762;54.480;18.556;2023-05-07T04:08:43;7.53;;;4.55;;
35188;SDS011;21762;54.480;18.556;2023-05-07T04:11:12;11.38;;;4.32;;
35188;SDS011;21762;54.480;18.556;2023-05-07T04:13:41;9.48;;;4.40;;
35188;SDS011;21762;54.480;18.556;2023-05-07T04:16:10;10.65;;;4.82;;
35188;SDS011;21762;54.480;18.556;2023-05-07T04:18:38;8.57;;;4.50;;
35188;SDS011;21762;54.480;18.556;2023-05-07T04:21:13;8.38;;;4.00;;
35188;SDS011;21762;54.480;18.556;2023-05-07T04:23:46;12.82;;;5.32;;
35188;SDS011;21762;54.480;18.556;2023-05-07T04:28:44;12.07;;;4.93;;
35188;SDS011;21762;54.480;18.556;2023-05-07T04:31:14;13.55;;;5.38;;
35188;SDS011;21762;54.480;18.556;2023-05-07T04:33:45;11.13;;;4.50;;
35188;SDS011;21762;54.480;18.556;2023-05-07T04:36:14;8.48;;;4.53;;
35188;SDS011;21762;54.480;18.556;2023-05-07T04:38:50;11.23;;;5.40;;
35188;SDS011;21762;54.480;18.556;2023-05-07T04:41:19;13.18;;;5.63;;
35188;SDS011;21762;54.480;18.556;2023-05-07T04:43:48;10.70;;;4.30;;
35188;SDS011;21762;54.480;18.556;2023-05-07T04:46:18;10.80;;;4.43;;
35188;SDS011;21762;54.480;18.556;2023-05-07T04:48:48;11.27;;;4.68;;
35188;SDS011;21762;54.480;18.556;2023-05-07T04:51:17;12.35;;;5.03;;
35188;SDS011;21762;54.480;18.556;2023-05-07T04:53:45;8.32;;;4.45;;
35188;SDS011;21762;54.480;18.556;2023-05-07T04:56:15;11.40;;;4.95;;
35188;SDS011;21762;54.480;18.556;2023-05-07T04:58:45;9.13;;;3.92;;
35188;SDS011;21762;54.480;18.556;2023-05-07T05:01:16;9.68;;;4.80;;
35188;SDS011;21762;54.480;18.556;2023-05-07T05:03:45;13.18;;;5.57;;
35188;SDS011;21762;54.480;18.556;2023-05-07T05:06:13;11.43;;;4.80;;
35188;SDS011;21762;54.480;18.556;2023-05-07T05:08:42;14.30;;;4.97;;
35188;SDS011;21762;54.480;18.556;2023-05-07T05:11:10;11.02;;;4.43;;
35188;SDS011;21762;54.480;18.556;2023-05-07T05:13:41;8.07;;;4.05;;
35188;SDS011;21762;54.480;18.556;2023-05-07T05:16:14;11.43;;;3.00;;
35188;SDS011;21762;54.480;18.556;2023-05-07T05:18:44;5.78;;;2.70;;
35188;SDS011;21762;54.480;18.556;2023-05-07T05:21:15;8.35;;;2.97;;
35188;SDS011;21762;54.480;18.556;2023-05-07T05:23:46;7.13;;;2.88;;
35188;SDS011;21762;54.480;18.556;2023-05-07T05:26:18;6.40;;;2.33;;
35188;SDS011;21762;54.480;18.556;2023-05-07T05:28:49;3.95;;;2.47;;
35188;SDS011;21762;54.480;18.556;2023-05-07T05:31:20;5.18;;;2.53;;
35188;SDS011;21762;54.480;18.556;2023-05-07T05:33:50;4.90;;;2.40;;
35188;SDS011;21762;54.480;18.556;2023-05-07T05:36:18;7.45;;;2.85;;
35188;SDS011;21762;54.480;18.556;2023-05-07T05:38:48;6.72;;;2.67;;
35188;SDS011;21762;54.480;18.556;2023-05-07T05:41:17;7.68;;;2.88;;
35188;SDS011;21762;54.480;18.556;2023-05-07T05:43:47;8.75;;;2.70;;
35188;SDS011;21762;54.480;18.556;2023-05-07T05:46:18;6.40;;;2.83;;
35188;SDS011;21762;54.480;18.556;2023-05-07T05:48:49;6.65;;;2.63;;
35188;SDS011;21762;54.480;18.556;2023-05-07T05:51:18;4.05;;;2.40;;
35188;SDS011;21762;54.480;18.556;2023-05-07T05:53:46;5.18;;;2.80;;
35188;SDS011;21762;54.480;18.556;2023-05-07T05:56:15;4.68;;;2.58;;
35188;SDS011;21762;54.480;18.556;2023-05-07T05:58:43;7.22;;;3.08;;
35188;SDS011;21762;54.480;18.556;2023-05-07T06:01:13;9.25;;;2.83;;
35188;SDS011;21762;54.480;18.556;2023-05-07T06:03:42;4.10;;;2.28;;
35188;SDS011;21762;54.480;18.556;2023-05-07T06:06:13;5.70;;;2.60;;
35188;SDS011;21762;54.480;18.556;2023-05-07T06:08:43;5.95;;;2.55;;
35188;SDS011;21762;54.480;18.556;2023-05-07T06:11:15;4.18;;;2.40;;
35188;SDS011;21762;54.480;18.556;2023-05-07T06:13:46;3.97;;;2.25;;
35188;SDS011;21762;54.480;18.556;2023-05-07T06:16:15;4.93;;;2.78;;
35188;SDS011;21762;54.480;18.556;2023-05-07T06:18:44;8.00;;;2.65;;
35188;SDS011;21762;54.480;18.556;2023-05-07T06:21:14;8.82;;;2.80;;
35188;SDS011;21762;54.480;18.556;2023-05-07T06:23:43;7.65;;;2.88;;
35188;SDS011;21762;54.480;18.556;2023-05-07T06:26:12;5.00;;;2.53;;
35188;SDS011;21762;54.480;18.556;2023-05-07T06:28:44;5.90;;;2.55;;
35188;SDS011;21762;54.480;18.556;2023-05-07T06:31:16;6.43;;;2.10;;
35188;SDS011;21762;54.480;18.556;2023-05-07T06:33:54;4.85;;;2.80;;
35188;SDS011;21762;54.480;18.556;2023-05-07T06:36:28;5.53;;;2.88;;
35188;SDS011;21762;54.480;18.556;2023-05-07T06:39:00;5.07;;;2.65;;
35188;SDS011;21762;54.480;18.556;2023-05-07T06:41:28;4.95;;;2.75;;
35188;SDS011;21762;54.480;18.556;2023-05-07T06:44:01;5.22;;;2.72;;
35188;SDS011;21762;54.480;18.556;2023-05-07T06:46:37;9.13;;;2.90;;
35188;SDS011;21762;54.480;18.556;2023-05-07T06:49:06;4.50;;;2.45;;
35188;SDS011;21762;54.480;18.556;2023-05-07T06:51:34;4.20;;;2.47;;
35188;SDS011;21762;54.480;18.556;2023-05-07T06:54:03;5.88;;;3.00;;
35188;SDS011;21762;54.480;18.556;2023-05-07T06:56:34;8.43;;;3.13;;
35188;SDS011;21762;54.480;18.556;2023-05-07T06:59:04;7.40;;;2.95;;
35188;SDS011;21762;54.480;18.556;2023-05-07T07:01:38;4.43;;;2.40;;
35188;SDS011;21762;54.480;18.556;2023-05-07T07:06:39;5.05;;;2.50;;
35188;SDS011;21762;54.480;18.556;2023-05-07T07:09:10;5.57;;;2.50;;
35188;SDS011;21762;54.480;18.556;2023-05-07T07:11:40;5.47;;;3.42;;
35188;SDS011;21762;54.480;18.556;2023-05-07T07:14:08;6.25;;;2.75;;
35188;SDS011;21762;54.480;18.556;2023-05-07T07:16:45;9.30;;;2.42;;
35188;SDS011;21762;54.480;18.556;2023-05-07T07:19:16;5.88;;;2.58;;
35188;SDS011;21762;54.480;18.556;2023-05-07T07:21:49;6.95;;;2.45;;
35188;SDS011;21762;54.480;18.556;2023-05-07T07:24:17;6.90;;;2.53;;
35188;SDS011;21762;54.480;18.556;2023-05-07T07:26:51;7.55;;;2.53;;
35188;SDS011;21762;54.480;18.556;2023-05-07T07:29:23;2.90;;;2.17;;
35188;SDS011;21762;54.480;18.556;2023-05-07T07:31:55;4.63;;;2.35;;
35188;SDS011;21762;54.480;18.556;2023-05-07T07:34:24;7.47;;;2.90;;
35188;SDS011;21762;54.480;18.556;2023-05-07T07:36:53;4.90;;;2.35;;
35188;SDS011;21762;54.480;18.556;2023-05-07T07:39:23;12.73;;;2.97;;
35188;SDS011;21762;54.480;18.556;2023-05-07T07:41:54;4.63;;;2.53;;
35188;SDS011;21762;54.480;18.556;2023-05-07T07:44:24;6.95;;;2.47;;
35188;SDS011;21762;54.480;18.556;2023-05-07T07:46:59;6.22;;;2.42;;
35188;SDS011;21762;54.480;18.556;2023-05-07T07:49:28;5.15;;;2.20;;
35188;SDS011;21762;54.480;18.556;2023-05-07T07:51:59;8.27;;;2.60;;
35188;SDS011;21762;54.480;18.556;2023-05-07T07:54:29;7.90;;;2.25;;
35188;SDS011;21762;54.480;18.556;2023-05-07T07:56:58;3.90;;;2.40;;
35188;SDS011;21762;54.480;18.556;2023-05-07T07:59:27;6.00;;;2.67;;
35188;SDS011;21762;54.480;18.556;2023-05-07T08:01:55;7.75;;;2.80;;
35188;SDS011;21762;54.480;18.556;2023-05-07T08:04:27;3.95;;;2.40;;
35188;SDS011;21762;54.480;18.556;2023-05-07T08:07:00;8.20;;;2.78;;
35188;SDS011;21762;54.480;18.556;2023-05-07T08:09:31;5.03;;;2.38;;
35188;SDS011;21762;54.480;18.556;2023-05-07T08:12:02;4.50;;;2.50;;
35188;SDS011;21762;54.480;18.556;2023-05-07T08:14:32;7.72;;;2.70;;
35188;SDS011;21762;54.480;18.556;2023-05-07T08:17:01;8.43;;;2.90;;
35188;SDS011;21762;54.480;18.556;2023-05-07T08:19:31;5.57;;;2.20;;
35188;SDS011;21762;54.480;18.556;2023-05-07T08:22:00;8.27;;;2.45;;
35188;SDS011;21762;54.480;18.556;2023-05-07T08:24:28;7.00;;;2.83;;
35188;SDS011;21762;54.480;18.556;2023-05-07T08:26:57;11.00;;;2.53;;
35188;SDS011;21762;54.480;18.556;2023-05-07T08:29:25;6.05;;;2.72;;
35188;SDS011;21762;54.480;18.556;2023-05-07T08:31:54;8.32;;;2.75;;
35188;SDS011;21762;54.480;18.556;2023-05-07T08:34:23;3.85;;;2.30;;
35188;SDS011;21762;54.480;18.556;2023-05-07T08:36:54;6.10;;;2.65;;
35188;SDS011;21762;54.480;18.556;2023-05-07T08:39:23;4.50;;;2.10;;
35188;SDS011;21762;54.480;18.556;2023-05-07T08:41:55;6.55;;;2.75;;
35188;SDS011;21762;54.480;18.556;2023-05-07T08:44:26;6.82;;;2.45;;
35188;SDS011;21762;54.480;18.556;2023-05-07T08:46:57;5.63;;;2.38;;
35188;SDS011;21762;54.480;18.556;2023-05-07T08:49:27;9.10;;;2.42;;
35188;SDS011;21762;54.480;18.556;2023-05-07T08:51:57;4.32;;;2.85;;
35188;SDS011;21762;54.480;18.556;2023-05-07T08:54:27;5.75;;;3.03;;
35188;SDS011;21762;54.480;18.556;2023-05-07T08:56:56;6.22;;;2.90;;
35188;SDS011;21762;54.480;18.556;2023-05-07T08:59:25;6.18;;;2.72;;
35188;SDS011;21762;54.480;18.556;2023-05-07T09:01:54;7.47;;;2.30;;
35188;SDS011;21762;54.480;18.556;2023-05-07T09:04:22;4.93;;;2.47;;
35188;SDS011;21762;54.480;18.556;2023-05-07T09:06:51;5.45;;;2.28;;
35188;SDS011;21762;54.480;18.556;2023-05-07T09:09:23;5.75;;;2.55;;
35188;SDS011;21762;54.480;18.556;2023-05-07T09:11:56;2.97;;;2.17;;
35188;SDS011;21762;54.480;18.556;2023-05-07T09:14:28;4.05;;;2.70;;
35188;SDS011;21762;54.480;18.556;2023-05-07T09:16:57;4.75;;;2.33;;
35188;SDS011;21762;54.480;18.556;2023-05-07T09:19:26;6.20;;;3.03;;
35188;SDS011;21762;54.480;18.556;2023-05-07T09:24:31;3.63;;;2.53;;
35188;SDS011;21762;54.480;18.556;2023-05-07T09:27:04;5.72;;;2.80;;
35188;SDS011;21762;54.480;18.556;2023-05-07T09:29:33;4.82;;;2.80;;
35188;SDS011;21762;54.480;18.556;2023-05-07T09:32:04;5.15;;;2.72;;
35188;SDS011;21762;54.480;18.556;2023-05-07T09:34:34;3.55;;;2.35;;
35188;SDS011;21762;54.480;18.556;2023-05-07T09:37:06;3.67;;;2.92;;
35188;SDS011;21762;54.480;18.556;2023-05-07T09:39:40;4.40;;;2.90;;
35188;SDS011;21762;54.480;18.556;2023-05-07T09:42:10;3.08;;;2.40;;
35188;SDS011;21762;54.480;18.556;2023-05-07T09:44:43;5.45;;;2.42;;
35188;SDS011;21762;54.480;18.556;2023-05-07T09:47:19;9.82;;;2.42;;
35188;SDS011;21762;54.480;18.556;2023-05-07T09:49:51;8.68;;;2.40;;
35188;SDS011;21762;54.480;18.556;2023-05-07T09:52:24;4.35;;;2.35;;
35188;SDS011;21762;54.480;18.556;2023-05-07T09:54:57;3.58;;;2.22;;
35188;SDS011;21762;54.480;18.556;2023-05-07T09:57:28;3.95;;;1.65;;
35188;SDS011;21762;54.480;18.556;2023-05-07T10:00:01;6.68;;;2.35;;
35188;SDS011;21762;54.480;18.556;2023-05-07T10:02:46;3.45;;;1.55;;
35188;SDS011;21762;54.480;18.556;2023-05-07T10:05:19;2.65;;;1.48;;
35188;SDS011;21762;54.480;18.556;2023-05-07T10:07:48;3.95;;;1.77;;
35188;SDS011;21762;54.480;18.556;2023-05-07T10:10:20;5.28;;;1.52;;
35188;SDS011;21762;54.480;18.556;2023-05-07T10:12:49;2.95;;;1.90;;
35188;SDS011;21762;54.480;18.556;2023-05-07T10:15:27;6.00;;;1.88;;
35188;SDS011;21762;54.480;18.556;2023-05-07T10:17:58;4.63;;;2.00;;
35188;SDS011;21762;54.480;18.556;2023-05-07T10:20:28;3.15;;;1.92;;
35188;SDS011;21762;54.480;18.556;2023-05-07T10:22:56;6.10;;;2.47;;
35188;SDS011;21762;54.480;18.556;2023-05-07T10:25:35;1.58;;;1.33;;
35188;SDS011;21762;54.480;18.556;2023-05-07T10:28:11;6.30;;;1.98;;
35188;SDS011;21762;54.480;18.556;2023-05-07T10:30:46;3.58;;;2.22;;
35188;SDS011;21762;54.480;18.556;2023-05-07T10:33:23;3.60;;;1.85;;
35188;SDS011;21762;54.480;18.556;2023-05-07T10:35:55;4.10;;;2.13;;
35188;SDS011;21762;54.480;18.556;2023-05-07T10:38:29;3.70;;;2.08;;
35188;SDS011;21762;54.480;18.556;2023-05-07T10:41:01;5.30;;;1.90;;
35188;SDS011;21762;54.480;18.556;2023-05-07T10:43:39;6.47;;;2.17;;
35188;SDS011;21762;54.480;18.556;2023-05-07T10:46:14;9.30;;;2.08;;
35188;SDS011;21762;54.480;18.556;2023-05-07T10:49:16;2.85;;;2.05;;
35188;SDS011;21762;54.480;18.556;2023-05-07T10:52:14;2.53;;;1.77;;
35188;SDS011;21762;54.480;18.556;2023-05-07T10:55:19;3.63;;;2.20;;
35188;SDS011;21762;54.480;18.556;2023-05-07T10:58:25;7.05;;;2.80;;
35188;SDS011;21762;54.480;18.556;2023-05-07T11:01:07;5.15;;;2.40;;
35188;SDS011;21762;54.480;18.556;2023-05-07T11:10:02;7.10;;;2.13;;
35188;SDS011;21762;54.480;18.556;2023-05-07T11:12:49;3.25;;;2.22;;
35188;SDS011;21762;54.480;18.556;2023-05-07T11:15:37;5.45;;;2.50;;
35188;SDS011;21762;54.480;18.556;2023-05-07T11:18:45;3.47;;;2.33;;
35188;SDS011;21762;54.480;18.556;2023-05-07T11:24:07;3.22;;;2.63;;
35188;SDS011;21762;54.480;18.556;2023-05-07T11:26:47;6.10;;;3.28;;
35188;SDS011;21762;54.480;18.556;2023-05-07T11:29:19;3.83;;;2.67;;
35188;SDS011;21762;54.480;18.556;2023-05-07T11:31:54;7.45;;;3.30;;
35188;SDS011;21762;54.480;18.556;2023-05-07T11:34:27;4.35;;;2.78;;
35188;SDS011;21762;54.480;18.556;2023-05-07T11:36:57;8.90;;;3.22;;
35188;SDS011;21762;54.480;18.556;2023-05-07T11:40:01;8.80;;;3.67;;
35188;SDS011;21762;54.480;18.556;2023-05-07T11:42:32;8.27;;;4.13;;
35188;SDS011;21762;54.480;18.556;2023-05-07T11:45:02;6.75;;;3.72;;
35188;SDS011;21762;54.480;18.556;2023-05-07T11:47:34;7.15;;;3.10;;
35188;SDS011;21762;54.480;18.556;2023-05-07T11:50:03;6.75;;;2.75;;
35188;SDS011;21762;54.480;18.556;2023-05-07T11:52:33;5.93;;;3.00;;
35188;SDS011;21762;54.480;18.556;2023-05-07T11:55:06;8.77;;;4.13;;
35188;SDS011;21762;54.480;18.556;2023-05-07T11:57:35;4.78;;;2.90;;
35188;SDS011;21762;54.480;18.556;2023-05-07T12:00:04;4.10;;;3.00;;
35188;SDS011;21762;54.480;18.556;2023-05-07T12:02:41;6.50;;;2.55;;
35188;SDS011;21762;54.480;18.556;2023-05-07T12:05:10;6.90;;;3.15;;
35188;SDS011;21762;54.480;18.556;2023-05-07T12:07:39;7.95;;;3.00;;
35188;SDS011;21762;54.480;18.556;2023-05-07T12:10:08;5.10;;;2.42;;
35188;SDS011;21762;54.480;18.556;2023-05-07T12:12:40;8.93;;;3.42;;
35188;SDS011;21762;54.480;18.556;2023-05-07T12:15:09;5.57;;;2.65;;
35188;SDS011;21762;54.480;18.556;2023-05-07T12:17:38;6.57;;;2.92;;
35188;SDS011;21762;54.480;18.556;2023-05-07T12:20:09;7.85;;;3.50;;
35188;SDS011;21762;54.480;18.556;2023-05-07T12:22:38;10.93;;;3.00;;
35188;SDS011;21762;54.480;18.556;2023-05-07T12:25:07;3.70;;;2.38;;
35188;SDS011;21762;54.480;18.556;2023-05-07T12:27:36;4.03;;;2.42;;
35188;SDS011;21762;54.480;18.556;2023-05-07T12:30:05;3.95;;;2.10;;
35188;SDS011;21762;54.480;18.556;2023-05-07T12:32:34;4.60;;;2.28;;
35188;SDS011;21762;54.480;18.556;2023-05-07T12:35:05;5.32;;;2.20;;
35188;SDS011;21762;54.480;18.556;2023-05-07T12:37:35;4.00;;;2.72;;
35188;SDS011;21762;54.480;18.556;2023-05-07T12:40:04;5.05;;;2.80;;
35188;SDS011;21762;54.480;18.556;2023-05-07T12:42:35;6.07;;;2.50;;
35188;SDS011;21762;54.480;18.556;2023-05-07T12:45:08;3.78;;;2.15;;
35188;SDS011;21762;54.480;18.556;2023-05-07T12:47:50;2.63;;;2.22;;
35188;SDS011;21762;54.480;18.556;2023-05-07T12:50:19;5.45;;;2.70;;
35188;SDS011;21762;54.480;18.556;2023-05-07T12:52:49;5.30;;;2.20;;
35188;SDS011;21762;54.480;18.556;2023-05-07T12:55:18;7.57;;;2.10;;
35188;SDS011;21762;54.480;18.556;2023-05-07T12:57:47;7.13;;;2.38;;
35188;SDS011;21762;54.480;18.556;2023-05-07T13:00:17;4.47;;;2.50;;
35188;SDS011;21762;54.480;18.556;2023-05-07T13:02:46;9.02;;;2.55;;
35188;SDS011;21762;54.480;18.556;2023-05-07T13:05:15;3.08;;;1.80;;
35188;SDS011;21762;54.480;18.556;2023-05-07T13:07:53;5.85;;;2.10;;
35188;SDS011;21762;54.480;18.556;2023-05-07T13:10:22;3.85;;;2.40;;
35188;SDS011;21762;54.480;18.556;2023-05-07T13:12:51;4.75;;;2.42;;
35188;SDS011;21762;54.480;18.556;2023-05-07T13:15:19;4.60;;;2.35;;
35188;SDS011;21762;54.480;18.556;2023-05-07T13:17:48;4.72;;;2.30;;
35188;SDS011;21762;54.480;18.556;2023-05-07T13:20:17;5.38;;;2.33;;
35188;SDS011;21762;54.480;18.556;2023-05-07T13:22:46;2.10;;;1.77;;
35188;SDS011;21762;54.480;18.556;2023-05-07T13:25:16;5.57;;;2.30;;
35188;SDS011;21762;54.480;18.556;2023-05-07T13:27:44;4.78;;;2.15;;
35188;SDS011;21762;54.480;18.556;2023-05-07T13:30:15;4.43;;;2.08;;
35188;SDS011;21762;54.480;18.556;2023-05-07T13:32:43;3.17;;;2.08;;
35188;SDS011;21762;54.480;18.556;2023-05-07T13:35:15;7.68;;;2.42;;
35188;SDS011;21762;54.480;18.556;2023-05-07T13:37:44;4.88;;;2.35;;
35188;SDS011;21762;54.480;18.556;2023-05-07T13:40:12;4.75;;;2.28;;
35188;SDS011;21762;54.480;18.556;2023-05-07T13:42:42;9.43;;;2.50;;
35188;SDS011;21762;54.480;18.556;2023-05-07T13:45:11;4.22;;;2.47;;
35188;SDS011;21762;54.480;18.556;2023-05-07T13:47:40;5.68;;;2.45;;
35188;SDS011;21762;54.480;18.556;2023-05-07T13:50:09;4.65;;;1.90;;
35188;SDS011;21762;54.480;18.556;2023-05-07T13:52:40;3.75;;;1.60;;
35188;SDS011;21762;54.480;18.556;2023-05-07T13:55:11;4.00;;;2.20;;
35188;SDS011;21762;54.480;18.556;2023-05-07T13:57:39;4.18;;;1.75;;
35188;SDS011;21762;54.480;18.556;2023-05-07T14:00:10;4.03;;;1.90;;
35188;SDS011;21762;54.480;18.556;2023-05-07T14:02:42;5.55;;;1.80;;
35188;SDS011;21762;54.480;18.556;2023-05-07T14:05:11;8.20;;;2.17;;
35188;SDS011;21762;54.480;18.556;2023-05-07T14:07:40;4.72;;;1.83;;
35188;SDS011;21762;54.480;18.556;2023-05-07T14:10:09;6.53;;;2.10;;
35188;SDS011;21762;54.480;18.556;2023-05-07T14:12:38;3.35;;;1.88;;
35188;SDS011;21762;54.480;18.556;2023-05-07T14:15:07;4.85;;;1.90;;
35188;SDS011;21762;54.480;18.556;2023-05-07T14:17:38;3.17;;;1.77;;
35188;SDS011;21762;54.480;18.556;2023-05-07T14:20:07;4.72;;;2.30;;
35188;SDS011;21762;54.480;18.556;2023-05-07T14:22:37;3.63;;;1.65;;
35188;SDS011;21762;54.480;18.556;2023-05-07T14:25:06;6.15;;;1.73;;
35188;SDS011;21762;54.480;18.556;2023-05-07T14:27:36;2.55;;;1.92;;
35188;SDS011;21762;54.480;18.556;2023-05-07T14:30:05;3.03;;;1.90;;
35188;SDS011;21762;54.480;18.556;2023-05-07T14:32:36;8.70;;;2.25;;
35188;SDS011;21762;54.480;18.556;2023-05-07T14:35:05;3.80;;;1.70;;
35188;SDS011;21762;54.480;18.556;2023-05-07T14:37:34;3.97;;;2.47;;
35188;SDS011;21762;54.480;18.556;2023-05-07T14:40:02;5.47;;;2.25;;
35188;SDS011;21762;54.480;18.556;2023-05-07T14:42:31;5.43;;;1.83;;
35188;SDS011;21762;54.480;18.556;2023-05-07T14:45:00;4.63;;;1.98;;
35188;SDS011;21762;54.480;18.556;2023-05-07T14:47:31;5.75;;;2.30;;
35188;SDS011;21762;54.480;18.556;2023-05-07T14:50:02;9.77;;;2.50;;
35188;SDS011;21762;54.480;18.556;2023-05-07T14:52:31;7.57;;;2.25;;
35188;SDS011;21762;54.480;18.556;2023-05-07T14:54:59;6.72;;;2.45;;
35188;SDS011;21762;54.480;18.556;2023-05-07T14:57:27;5.18;;;2.58;;
35188;SDS011;21762;54.480;18.556;2023-05-07T14:59:58;5.32;;;2.20;;
35188;SDS011;21762;54.480;18.556;2023-05-07T15:02:27;7.13;;;2.47;;
35188;SDS011;21762;54.480;18.556;2023-05-07T15:04:55;7.57;;;2.45;;
35188;SDS011;21762;54.480;18.556;2023-05-07T15:07:25;8.48;;;2.65;;
35188;SDS011;21762;54.480;18.556;2023-05-07T15:09:54;8.38;;;2.40;;